Mise à jour:  Vendredi, 16 février 2007, 17h42 (UTC+4)
Trajectoire complète du système 06 06 TEMPETE tropicale moderée FELAPI
Date et Heure
en UTC
(soit H+4
à La Réunion)
Longit.


(°Est)
Latitude


(°Sud)
Intensité
Dvorak
analysée
(1.0/8.0)

Type de système
analysé

Pression
minimale
estimée
(hPa)
Vent moyen
sur 10'
maxi estimé
(noeud,km/h)
Rafales
maximales
associées
(noeud,km/h)
26/01/2005 06:00 39.89 20.20 1.5 Perturbation tropicale 1004 20 kt, 37 km/h 28 kt, 52 km/h
26/01/2005 12:00 40.88 21.05 1.5 Perturbation tropicale 1003 20 kt, 37 km/h 28 kt, 52 km/h
26/01/2005 18:00 40.97 21.53 2.0 Perturbation tropicale 1002 25 kt, 46 km/h 35 kt, 65 km/h
27/01/2005 00:00 40.97 21.84 2.0 Perturbation tropicale 1001 25 kt, 46 km/h 35 kt, 65 km/h
27/01/2005 06:00 40.98 22.10 2.0 Perturbation tropicale 1000 25 kt, 46 km/h 35 kt, 65 km/h
27/01/2005 12:00 41.68 22.06 2.5 DEPRESSION tropicale 998 30 kt, 55 km/h 42 kt, 78 km/h
27/01/2005 18:00 42.37 22.28 2.5 DEPRESSION tropicale 996 33 kt, 61 km/h 46 kt, 86 km/h
28/01/2005 00:00 42.87 22.71 2.5 TEMPETE tropicale moderée 995 35 kt, 64 km/h 49 kt, 91 km/h
28/01/2005 06:00 43.42 23.42 2.5 TEMPETE tropicale moderée 995 35 kt, 64 km/h 49 kt, 91 km/h
28/01/2005 12:00 43.91 24.10 2.5 DEPRESSION sur terre 997 30 kt, 55 km/h 42 kt, 78 km/h
28/01/2005 18:00 44.62 24.74   DEPRESSION sur terre 998 25 kt, 46 km/h 35 kt, 65 km/h
29/01/2005 00:00 45.40 25.50   DEPRESSION sur terre 999 25 kt, 46 km/h 35 kt, 65 km/h
29/01/2005 06:00 45.78 26.09 2.0 Perturbation tropicale 1000 25 kt, 46 km/h 35 kt, 65 km/h
29/01/2005 12:00 46.49 26.04 2.0 Perturbation tropicale 999 27 kt, 50 km/h 38 kt, 70 km/h
29/01/2005 18:00 47.15 25.66 2.5 DEPRESSION tropicale 998 30 kt, 55 km/h 42 kt, 78 km/h
30/01/2005 00:00 47.70 25.07 2.5 DEPRESSION tropicale 998 30 kt, 55 km/h 42 kt, 78 km/h
30/01/2005 06:00 48.23 24.42 2.0 Perturbation tropicale 999 25 kt, 46 km/h 35 kt, 65 km/h
30/01/2005 12:00 49.11 23.33 2.0 Perturbation tropicale 999 25 kt, 46 km/h 35 kt, 65 km/h
30/01/2005 18:00 49.64 22.75 2.0 Perturbation tropicale 999 25 kt, 46 km/h 35 kt, 65 km/h
31/01/2005 00:00 50.15 22.35 2.0 Perturbation tropicale 999 25 kt, 46 km/h 35 kt, 65 km/h
31/01/2005 06:00 50.60 22.40 2.0 Perturbation tropicale 1000 25 kt, 46 km/h 35 kt, 65 km/h
31/01/2005 12:00 50.70 23.00 2.0 Perturbation tropicale 1000 25 kt, 46 km/h 35 kt, 65 km/h
31/01/2005 18:00 50.90 23.35 2.0 Perturbation tropicale 1000 25 kt, 46 km/h 35 kt, 65 km/h
01/02/2005 00:00 50.84 24.64 2.0 Perturbation tropicale 999 25 kt, 46 km/h 35 kt, 65 km/h
01/02/2005 06:00 50.34 26.15   DEPRESSION sub-tropicale 998 30 kt, 55 km/h 42 kt, 78 km/h
01/02/2005 12:00 49.99 27.06   DEPRESSION sub-tropicale 997 35 kt, 64 km/h 49 kt, 91 km/h
01/02/2005 18:00 49.79 28.06   DEPRESSION sub-tropicale 999 30 kt, 55 km/h 42 kt, 78 km/h
02/02/2005 00:00 49.87 28.77   DEPRESSION sub-tropicale 999 30 kt, 55 km/h 42 kt, 78 km/h
02/02/2005 06:00 50.04 29.21   DEPRESSION sub-tropicale 1000 27 kt, 50 km/h 38 kt, 70 km/h
02/02/2005 12:00 50.51 29.92   DEPRESSION sub-tropicale 1000 27 kt, 50 km/h 38 kt, 70 km/h
02/02/2005 18:00 51.45 30.84   DEPRESSION sub-tropicale 1000 27 kt, 50 km/h 38 kt, 70 km/h
03/02/2005 00:00 52.95 31.67   DEPRESSION extra-tropicale 1000 25 kt, 46 km/h 35 kt, 65 km/h
03/02/2005 06:00 55.29 32.29   DEPRESSION extra-tropicale 1002 25 kt, 46 km/h 35 kt, 65 km/h
03/02/2005 12:00 54.98 34.64   DEPRESSION se comblant 1004 25 kt, 46 km/h 35 kt, 65 km/h
03/02/2005 18:00 54.17 37.49   DEPRESSION se comblant 1005    
Retour